Time;durP1;ratioP1;P1;durP2;ratioP2;P2;SDS_P1;SDS_P2;PMS_P1;PMS_P2;Temp;Humidity;BMP_temperature;BMP_pressure;BME280_temperature;BME280_humidity;BME280_pressure;Samples;Min_cycle;Max_cycle;Signal;HPM_P1;HPM_P2
2021/07/06 00:05:55;;;;;;;7.30;2.50;;;;;;;16.58;82.77;99751.47;20661970;28;20104;-69
2021/07/06 00:15:57;;;;;;;4.47;2.42;;;;;;;16.38;84.13;99752.47;20662094;28;20611;-69
2021/07/06 00:25:59;;;;;;;4.40;2.35;;;;;;;16.53;83.01;99741.16;20662032;28;20512;-68
2021/07/06 00:36:02;;;;;;;6.85;2.03;;;;;;;16.39;83.08;99725.13;20659987;28;20046;-69
2021/07/06 00:46:05;;;;;;;5.47;2.50;;;;;;;16.31;84.38;99722.88;20659909;28;20054;-69
2021/07/06 00:56:07;;;;;;;5.35;2.10;;;;;;;16.33;83.96;99697.22;20658382;28;20046;-69
2021/07/06 01:06:10;;;;;;;5.40;2.20;;;;;;;16.26;82.99;99692.34;20656646;28;20050;-69
2021/07/06 01:16:12;;;;;;;5.22;2.50;;;;;;;16.04;84.33;99677.53;20657937;28;20484;-68
2021/07/06 01:26:15;;;;;;;5.38;2.67;;;;;;;16.09;84.26;99678.16;20657423;28;20057;-69
2021/07/06 01:36:18;;;;;;;5.50;2.42;;;;;;;16.09;84.45;99679.94;20656023;28;20109;-68
2021/07/06 01:46:20;;;;;;;4.25;2.38;;;;;;;16.01;84.56;99667.16;20656179;28;20116;-68
2021/07/06 01:56:22;;;;;;;7.95;2.70;;;;;;;15.94;84.57;99671.00;20656108;28;20504;-69
2021/07/06 02:06:23;;;;;;;5.22;2.50;;;;;;;15.79;84.69;99667.34;20654848;28;20046;-69
2021/07/06 02:16:25;;;;;;;6.35;2.55;;;;;;;15.62;85.44;99670.78;20655900;28;20097;-69
2021/07/06 02:26:27;;;;;;;4.90;2.45;;;;;;;15.43;85.60;99651.47;20664998;28;20054;-69
2021/07/06 02:36:29;;;;;;;4.97;2.80;;;;;;;15.40;86.17;99646.34;20669587;28;20167;-69
2021/07/06 02:46:33;;;;;;;4.73;2.80;;;;;;;15.27;86.60;99629.38;20668318;28;20556;-69
2021/07/06 02:56:35;;;;;;;7.55;2.78;;;;;;;15.30;86.94;99619.53;20667780;28;20129;-69
2021/07/06 03:06:37;;;;;;;6.05;2.63;;;;;;;15.32;85.95;99601.00;20666292;28;20046;-69
2021/07/06 03:16:39;;;;;;;6.82;2.85;;;;;;;15.31;86.57;99588.75;20666276;28;20081;-69
2021/07/06 03:26:41;;;;;;;7.30;3.08;;;;;;;15.49;86.26;99572.03;20665616;28;20130;-68
2021/07/06 03:36:42;;;;;;;6.82;3.13;;;;;;;15.38;85.95;99566.44;20663213;28;20054;-69
2021/07/06 03:46:44;;;;;;;4.70;2.58;;;;;;;15.41;86.67;99574.19;20663659;28;20042;-69
2021/07/06 03:56:46;;;;;;;7.80;2.83;;;;;;;15.30;86.49;99564.16;20663177;28;20053;-69
2021/07/06 04:06:48;;;;;;;6.85;2.95;;;;;;;15.50;86.20;99557.91;20660757;28;20058;-68
2021/07/06 04:16:50;;;;;;;4.45;2.65;;;;;;;15.43;85.54;99553.88;20640493;28;20113;-69
2021/07/06 04:26:52;;;;;;;6.45;3.05;;;;;;;15.63;85.86;99548.50;20661147;28;20056;-69
2021/07/06 04:36:53;;;;;;;7.57;3.10;;;;;;;16.29;83.48;99557.44;20660091;28;20559;-69
2021/07/06 04:46:56;;;;;;;4.53;2.60;;;;;;;17.32;78.79;99572.06;20658945;28;20054;-69
2021/07/06 04:56:57;;;;;;;6.22;2.42;;;;;;;17.04;80.75;99574.56;20658560;28;20042;-69
2021/07/06 05:06:59;;;;;;;7.63;2.58;;;;;;;16.70;82.57;99599.31;20657844;28;20483;-69
2021/07/06 05:17:03;;;;;;;8.95;2.92;;;;;;;16.91;81.26;99604.34;20658003;28;20053;-68
2021/07/06 05:27:05;;;;;;;9.63;3.30;;;;;;;17.46;80.65;99603.06;20657451;28;20078;-68
2021/07/06 05:37:07;;;;;;;7.97;2.83;;;;;;;17.77;79.32;99572.19;20656868;28;20051;-69
2021/07/06 05:47:08;;;;;;;9.13;2.58;;;;;;;18.03;78.99;99616.53;20648893;28;20238;-67
2021/07/06 05:57:10;;;;;;;8.75;2.72;;;;;;;18.75;76.50;99614.03;20659455;28;20073;-67
2021/07/06 06:07:12;;;;;;;5.80;2.20;;;;;;;18.92;74.70;99579.31;20671838;28;20448;-67
2021/07/06 06:17:14;;;;;;;6.75;2.05;;;;;;;19.72;71.30;99605.09;20671460;28;20089;-68
2021/07/06 06:27:16;;;;;;;7.05;2.10;;;;;;;20.25;69.96;99610.44;20668945;28;20644;-67
2021/07/06 06:37:18;;;;;;;5.35;1.90;;;;;;;20.27;72.20;99602.38;20669299;28;20096;-68
2021/07/06 06:47:21;;;;;;;4.43;2.10;;;;;;;21.12;69.39;99617.63;20669115;28;20046;-68
2021/07/06 06:57:24;;;;;;;4.47;2.03;;;;;;;21.22;68.49;99616.03;20669276;28;20046;-68
2021/07/06 07:07:26;;;;;;;3.78;1.80;;;;;;;21.66;67.79;99622.63;20642342;28;20054;-67
2021/07/06 07:17:27;;;;;;;5.78;2.38;;;;;;;21.47;68.18;99643.56;20648089;28;20047;-68
2021/07/06 07:27:29;;;;;;;5.57;2.28;;;;;;;21.14;69.83;99657.47;20594459;28;20047;-68
2021/07/06 07:37:31;;;;;;;4.13;1.70;;;;;;;21.11;70.66;99669.19;20661269;28;20057;-68
2021/07/06 07:47:33;;;;;;;4.30;1.70;;;;;;;21.37;69.06;99686.00;20746137;28;20558;-68
2021/07/06 07:57:56;;;;;;;6.43;2.10;;;;;;;20.85;71.71;99721.59;20745372;28;20037;-68
2021/07/06 08:07:58;;;;;;;4.95;2.42;;;;;;;20.52;75.51;99735.38;20678819;28;20042;-67
2021/07/06 08:18:00;;;;;;;4.63;2.00;;;;;;;20.52;77.27;99777.06;20595292;28;20051;-69
2021/07/06 08:28:03;;;;;;;4.00;2.10;;;;;;;20.24;78.03;99832.03;20581133;28;20082;-69
2021/07/06 08:38:05;;;;;;;8.07;2.72;;;;;;;19.72;82.88;99910.56;20644992;28;20101;-67
2021/07/06 08:48:08;;;;;;;4.80;1.88;;;;;;;19.09;84.80;99939.16;20659152;28;20456;-67
2021/07/06 08:58:10;;;;;;;4.55;1.60;;;;;;;19.00;85.86;99932.56;20659601;28;20056;-66
2021/07/06 09:08:16;;;;;;;6.25;1.83;;;;;;;19.35;86.20;99953.53;20590275;28;20113;-66
2021/07/06 09:18:20;;;;;;;7.50;2.78;;;;;;;19.64;86.47;99949.16;20645889;28;20112;-66
2021/07/06 09:28:23;;;;;;;5.57;2.57;;;;;;;19.65;86.47;99965.03;20656977;28;20097;-67
2021/07/06 09:38:25;;;;;;;3.58;1.85;;;;;;;19.69;85.73;99923.19;20655260;28;20290;-67
2021/07/06 09:48:28;;;;;;;4.35;1.70;;;;;;;19.96;84.68;99940.09;20655902;28;20062;-67
2021/07/06 09:58:30;;;;;;;5.22;1.67;;;;;;;19.97;84.71;99912.56;20651543;28;20104;-67
2021/07/06 10:08:32;;;;;;;5.82;1.75;;;;;;;19.92;84.41;99916.44;20654689;28;20468;-67
2021/07/06 10:18:35;;;;;;;4.10;1.90;;;;;;;19.88;84.14;99912.28;20655044;28;20109;-67
2021/07/06 10:28:37;;;;;;;4.45;1.70;;;;;;;19.83;84.80;99906.41;20654143;28;20077;-67
2021/07/06 10:38:42;;;;;;;4.03;1.80;;;;;;;20.54;82.74;99870.91;20655826;28;20092;-67
2021/07/06 10:48:45;;;;;;;4.68;1.50;;;;;;;20.20;82.38;99867.72;20667480;28;20474;-67
2021/07/06 10:58:58;;;;;;;5.13;1.80;;;;;;;20.04;82.34;99862.56;20668619;28;20459;-67
2021/07/06 11:08:59;;;;;;;3.78;1.50;;;;;;;19.97;82.49;99877.16;20721770;28;20519;-67
2021/07/06 11:19:34;;;;;;;4.75;1.88;;;;;;;19.79;84.91;99902.25;20748096;28;20164;-67
2021/07/06 11:29:38;;;;;;;4.80;2.03;;;;;;;19.87;84.98;99926.50;20746554;28;20045;-67
2021/07/06 11:39:40;;;;;;;4.17;1.80;;;;;;;19.87;84.51;99942.47;20667408;28;20042;-67
2021/07/06 11:49:41;;;;;;;5.22;1.85;;;;;;;19.80;84.77;99975.69;20663946;28;20058;-67
2021/07/06 11:59:43;;;;;;;3.47;1.83;;;;;;;19.58;85.02;99976.91;20663005;28;20073;-66
2021/07/06 12:09:45;;;;;;;3.58;1.70;;;;;;;19.41;85.43;100006.28;20660981;28;20050;-66
2021/07/06 12:19:47;;;;;;;4.93;1.83;;;;;;;19.47;85.98;100017.38;20661060;28;20144;-67
2021/07/06 12:30:03;;;;;;;4.70;1.80;;;;;;;19.45;85.15;100002.47;20660733;28;20046;-67
2021/07/06 12:40:08;;;;;;;5.00;1.95;;;;;;;19.54;85.78;100007.25;20740409;28;20054;-67
2021/07/06 12:50:26;;;;;;;4.13;1.70;;;;;;;19.70;86.21;100020.53;20740161;28;20289;-67
2021/07/06 13:00:28;;;;;;;4.32;2.00;;;;;;;19.55;84.85;100034.69;20736270;28;20047;-67
2021/07/06 13:10:34;;;;;;;5.70;1.60;;;;;;;19.33;85.00;100027.09;20650134;28;20062;-66
2021/07/06 13:20:40;;;;;;;7.47;1.80;;;;;;;19.22;85.70;100017.13;20576700;28;20129;-67
2021/07/06 13:30:43;;;;;;;3.53;1.48;;;;;;;19.09;85.94;100011.66;20580389;28;20050;-66
2021/07/06 13:40:46;;;;;;;3.75;1.70;;;;;;;19.31;86.36;99995.34;20656780;28;20050;-67
2021/07/06 13:50:48;;;;;;;5.65;1.80;;;;;;;19.19;86.43;100012.81;20655540;28;20134;-67
2021/07/06 14:00:50;;;;;;;6.93;2.08;;;;;;;19.70;86.49;99983.34;20648321;28;20118;-67
2021/07/06 14:10:53;;;;;;;4.93;1.80;;;;;;;20.18;84.65;99986.63;20585173;28;20050;-67
2021/07/06 14:20:55;;;;;;;3.70;1.40;;;;;;;20.29;83.33;99988.59;20665562;28;20042;-67
2021/07/06 14:30:57;;;;;;;4.03;1.60;;;;;;;20.25;83.77;100003.88;20671335;28;20386;-67
2021/07/06 14:40:59;;;;;;;3.97;1.67;;;;;;;20.16;83.96;99978.72;20670591;28;20038;-67
2021/07/06 14:51:01;;;;;;;5.20;1.83;;;;;;;20.09;84.32;99992.50;20667164;28;20050;-66
2021/07/06 15:01:02;;;;;;;2.67;1.30;;;;;;;20.19;84.67;99983.00;20666916;28;20058;-67
2021/07/06 15:11:04;;;;;;;3.95;1.85;;;;;;;20.13;83.99;99973.59;20664994;28;20250;-67
2021/07/06 15:21:06;;;;;;;5.00;1.70;;;;;;;20.18;83.70;99971.50;20666232;28;20053;-68
2021/07/06 15:31:08;;;;;;;4.47;1.80;;;;;;;20.17;83.56;99991.06;20662794;28;20108;-68
2021/07/06 15:41:10;;;;;;;3.25;1.70;;;;;;;20.13;83.83;99988.69;20665617;28;20051;-68
2021/07/06 15:51:11;;;;;;;3.42;1.63;;;;;;;20.18;82.92;99984.81;20669924;28;20108;-68
2021/07/06 16:01:14;;;;;;;3.92;1.50;;;;;;;20.34;83.68;100002.44;20667873;28;20054;-69
2021/07/06 16:11:16;;;;;;;4.10;1.70;;;;;;;20.36;82.69;100029.78;20663367;28;20116;-69
2021/07/06 16:21:18;;;;;;;3.80;1.83;;;;;;;20.14;83.47;100027.63;20663839;28;20481;-68
2021/07/06 16:31:19;;;;;;;3.15;1.60;;;;;;;19.97;84.10;100021.50;20655582;28;20386;-67
2021/07/06 16:41:22;;;;;;;3.17;1.80;;;;;;;19.94;84.05;100052.75;20657272;28;20054;-68
2021/07/06 18:03:48;;;;;;;4.20;2.03;;;;;;;19.33;87.28;100077.53;20702777;28;20083;-68
2021/07/06 18:13:49;;;;;;;7.05;2.85;;;;;;;19.27;86.89;100077.91;20753934;28;20097;-68
2021/07/06 18:23:51;;;;;;;6.43;2.13;;;;;;;19.02;86.47;100108.47;20752731;28;20412;-68
2021/07/06 18:33:53;;;;;;;6.22;2.00;;;;;;;18.96;86.32;100127.38;20719465;28;20043;-68
2021/07/06 18:43:58;;;;;;;4.65;1.50;;;;;;;18.70;86.31;100136.75;20652384;28;20043;-68
2021/07/06 18:54:01;;;;;;;4.63;1.65;;;;;;;18.64;86.66;100145.00;20651969;28;20058;-68
2021/07/06 19:04:03;;;;;;;3.33;1.90;;;;;;;18.58;87.24;100127.59;20667751;28;20046;-68
2021/07/06 19:14:04;;;;;;;6.18;1.85;;;;;;;18.55;86.14;100154.28;20614944;28;20054;-68
2021/07/06 19:34:09;;;;;;;5.00;1.48;;;;;;;18.30;85.85;100172.38;20616087;28;20097;-68
2021/07/06 19:44:11;;;;;;;4.07;1.42;;;;;;;18.17;85.61;100175.69;20665799;28;20858;-67
2021/07/06 19:54:13;;;;;;;3.67;1.65;;;;;;;18.06;85.54;100182.44;20664278;28;20599;-68
2021/07/06 20:04:16;;;;;;;4.05;1.60;;;;;;;17.95;86.49;100185.63;20697489;28;20049;-68
2021/07/06 20:14:18;;;;;;;4.15;1.48;;;;;;;17.76;86.85;100227.19;20742734;28;20050;-68
2021/07/06 20:24:19;;;;;;;4.72;1.20;;;;;;;17.66;86.46;100243.47;20743266;28;20049;-67
2021/07/06 20:34:22;;;;;;;4.15;1.60;;;;;;;17.59;86.69;100215.59;20706654;28;20057;-67
2021/07/06 20:44:24;;;;;;;4.53;1.55;;;;;;;17.53;87.18;100263.53;20661405;28;20104;-69
2021/07/06 20:54:26;;;;;;;3.17;1.48;;;;;;;17.38;86.93;100258.94;20660270;28;20073;-68
2021/07/06 21:04:28;;;;;;;3.33;1.73;;;;;;;17.35;86.43;100232.63;20659874;28;20100;-68
2021/07/06 21:14:29;;;;;;;7.35;1.80;;;;;;;17.39;86.32;100245.66;20657900;28;20409;-68
2021/07/06 21:24:35;;;;;;;3.00;1.50;;;;;;;17.30;86.97;100232.00;20658263;28;20046;-68
2021/07/06 21:34:36;;;;;;;3.33;1.80;;;;;;;17.25;87.90;100231.31;20657002;28;20101;-68
2021/07/06 21:44:38;;;;;;;7.07;2.90;;;;;;;17.18;87.72;100255.41;20657506;28;20050;-68
2021/07/06 21:54:40;;;;;;;3.78;1.80;;;;;;;17.02;86.51;100299.38;20657813;28;20054;-67
2021/07/06 22:04:43;;;;;;;5.43;1.60;;;;;;;16.93;86.06;100262.75;20654702;28;20578;-68
2021/07/06 22:14:45;;;;;;;4.10;1.50;;;;;;;16.87;85.40;100281.53;20656817;28;20046;-69
2021/07/06 22:24:47;;;;;;;3.95;1.17;;;;;;;16.70;83.34;100286.66;20655708;28;20047;-69
2021/07/06 22:34:48;;;;;;;3.50;1.33;;;;;;;16.47;82.59;100309.59;20655077;28;20185;-68
2021/07/06 22:44:50;;;;;;;3.55;1.20;;;;;;;16.37;83.02;100308.28;20668184;28;20054;-68
2021/07/06 22:54:52;;;;;;;2.60;1.17;;;;;;;16.27;83.07;100320.13;20667355;28;20051;-68
2021/07/06 23:04:54;;;;;;;5.78;1.27;;;;;;;16.17;83.56;100314.38;20667614;28;20050;-68
2021/07/06 23:14:56;;;;;;;5.00;1.20;;;;;;;16.04;85.60;100305.19;20669051;28;20054;-68
2021/07/06 23:24:58;;;;;;;3.63;1.30;;;;;;;16.08;84.65;100291.81;20667400;28;20117;-68
2021/07/06 23:35:00;;;;;;;6.18;1.35;;;;;;;15.95;84.25;100308.22;20666262;28;20053;-69
2021/07/06 23:45:02;;;;;;;6.25;1.40;;;;;;;16.00;85.81;100315.06;20666178;28;20101;-69
2021/07/06 23:55:05;;;;;;;3.28;1.40;;;;;;;15.82;84.83;100337.75;20664224;28;20046;-69
